Willow Springs, California
Current Conditions -  °F | °C
As of 8:56 PM on Monday 26 Jan 2015 (Local Time) from KWJF Reporting Station
Overcast Overcast  
Wind Chill: 50°   Ceiling: 2700
Heat Index: 50°   Visibility: 10mi
Dew Point: 48°   Wind: 8mph
Humidity: 93%   Direction: 60°ENE
Pressure: 30.13"   Gusts: NA
Location:  34.8931°N, 118.353°W
Report Text: KWJF 270456Z AUTO 06007KT 10SM OVC027 10/09 A3013 RMK AO2 RAB15E32 SLP209 P0000 T01000089
Loading
Personal Weather Stations






























Interactive Weather Map New forecast layout! Learn more

10-Day Weather Forecast

Advertisements
Track Severe Weather on mobile